[source: ADDS]
METAR
EDVE 032150Z 14007KT CAVOK 15/12 Q1000

TAF EDVE 031700Z 0318/0321 13004KT CAVOK PROB30 TEMPO 0318/0321 TSRA SCT030CB EDDV 032220Z VRB04KT CAVOK 17/12 Q1000

TAF EDDV 031700Z 0318/0418 13004KT CAVOK PROB30 TEMPO 0404/0409 SHRA FEW060CB BECMG 0409/0412 30005KT TEMPO 0409/0413 4000 TSRA BKN012CB BECMG 0413/0415 BKN013 TEMPO 0413/0418 SHRA BKN007CB ETHS 032220Z 07002KT 9999 BKN110 BKN220 12/11 Q1000 BLU BLU

TAF ETHS 032010Z 0320/0405 06005KT 9999 NSW SCT050 BKN080 ETHC 032220Z 12004KT 9999 SCT110 BKN150 16/11 Q1000 BLU

TAF ETHC 031329Z 0314/0323 VRB03KT 9999 NSW SCT070 BKN150 TEMPO 0314/0319 23010G20KT 8000 -TSRA SCT030 BKN050CB PROB30 0314/0319 25015G25KT 3000 TSRA BKN020 BKN030CB EDVK 031820Z VRB02KT CAVOK 19/12 Q1001

TAF EDVK 031700Z 0318/0403 VRB03KT CAVOK
TAF
TAF EDVE 031700Z 0318/0321 13004KT CAVOK PROB30 TEMPO 0318/0321 TSRA SCT030CB

TAF EDDV 031700Z 0318/0418 13004KT CAVOK PROB30 TEMPO 0404/0409 SHRA FEW060CB BECMG 0409/0412 30005KT TEMPO 0409/0413 4000 TSRA BKN012CB BECMG 0413/0415 BKN013 TEMPO 0413/0418 SHRA BKN007CB

TAF ETHS 032010Z 0320/0405 06005KT 9999 NSW SCT050 BKN080

TAF ETHC 031329Z 0314/0323 VRB03KT 9999 NSW SCT070 BKN150 TEMPO 0314/0319 23010G20KT 8000 -TSRA SCT030 BKN050CB PROB30 0314/0319 25015G25KT 3000 TSRA BKN020 BKN030CB

TAF EDVK 031700Z 0318/0403 VRB03KT CAVOK

SR / SS: 02:59 / 19:32 UTC (EDVE 2020-06-04)
Mitgliederversammlung als Online-Konferenz am 28.05.2020. +++ Flugbetrieb und Ausbildungsbetrieb unter Auflagen wieder möglich. +++ Gero steht ebenfalls als Fluglehrer zur Verfügung! Vielen Dank an Gero und viel Erfolg beim Ausbilden. +++ Ilya hat die Theorieprüfung bestanden! Herzlichen Glückwunsch und weiterhin viel Erfolg für die restliche Ausbildung! +++ Hallo Felix, herzlich Willkommen bei der FFG und viel Erfolg für deine Pilotenausbildung! +++ Jens verstärkt als neuer Fluglehrer ab sofort unser FFG-Fluglehrer-Team. Glückwunsch und viel Erfolg beim Ausbilden! +++ Wir beglückwünschen Sebastian zur bestandenen PPL-Theorie-Prüfung! Weiterhin viel Erfolg bei der Ausbildung! +++ Stefan hat die praktische Prüfung bestanden! Herzlichen Glückwunsch und Always Happy Landings! +++ Ein weiteres Mitglied hat die Prüfung zum Fluglehrer gemeistert. Glückwunsch Nico und viel Erfolg beim Ausbilden! +++ Florian Hansmann ist ab sofort als Fluglehrer für die FFG tätig! Danke für das Engagement und viel Spaß mit deinen zukünftigen Schülern! +++ Willkommen im Verein Michael und viel Erfolg für deine Ausbildung! +++ Herzlich Willkommen bei der FFG Jens!

wenig -> mittel -> viel

Professionelle Piloten arbeiten mit Checkliste
Ausdrucken und abarbeiten! Vorbereitete Links helfen bei der Beschaffung der notwendigen Informationen.

Weiterlesen ...

Hier gibt es die AIP mit allen erforderlichen Karten die im Abo der FFG liegen zum Download für unsere Mitglieder.

Letztes NOTAM EDVE
von 25.05.2020 0858Z bis 23.08.2020 2359Z
TWY H CLSD.

Letztes NOTAM EDBC
von 03.06.2020 0836Z bis 01.09.2020 2359Z
COCHSTEDT CTR DEACTIVATED.

Letztes NOTAM EDVM
von 25.06.2019 0700Z bis PERM
SAFETYZONE FOR PJE ESTABLISHED ON APRON 1, TWY D BTN TWY G AND B AND TWY B SOUTH TWY D. DURING PJE ACT START UP OF ENGINES NOT PERMITTED. ACTUAL [more]

Letztes NOTAM EDDV
von 08.06.2020 0430Z bis 19.06.2020 2000Z
RWY 09C/27C CLOSED.

Letztes NOTAM EDVK
von 03.06.2020 1138Z bis 05.06.2020 1830Z
AVGAS NOT AVBL.

Letztes NOTAM EDVS
von 05.05.2020 0723Z bis 03.08.2020 1900Z
AD AVBL ONLY FOR HOMEBASED PILOTS.

          aerodata150     Radio38